createdAt,value
2022-08-26T00:03:42.047Z,23.35
2022-08-26T00:13:56.544Z,23.31
2022-08-26T00:18:59.024Z,23.26
2022-08-26T00:24:01.876Z,23.2
2022-08-26T00:29:04.427Z,23.16
2022-08-26T00:34:07.095Z,23.11
2022-08-26T00:44:12.272Z,22.93
2022-08-26T00:49:14.996Z,22.9
2022-08-26T00:54:17.757Z,22.93
2022-08-26T00:59:20.870Z,23
2022-08-26T01:04:23.688Z,23.08
2022-08-26T01:09:26.486Z,23.09
2022-08-26T01:14:29.132Z,23.11
2022-08-26T01:19:31.579Z,23.14
2022-08-26T01:24:34.445Z,23.15
2022-08-26T01:29:37.202Z,23.17
2022-08-26T01:34:39.936Z,23.17
2022-08-26T01:39:42.511Z,23.18
2022-08-26T01:44:45.153Z,23.17
2022-08-26T01:49:47.808Z,23.16
2022-08-26T01:54:50.436Z,23.12
2022-08-26T01:59:53.168Z,23.05
2022-08-26T02:04:55.902Z,22.97
2022-08-26T02:09:58.553Z,22.92
2022-08-26T02:15:01.068Z,22.9
2022-08-26T02:20:03.718Z,22.84
2022-08-26T02:25:06.333Z,22.8
2022-08-26T02:30:08.862Z,22.74
2022-08-26T02:35:11.716Z,22.73
2022-08-26T02:40:14.431Z,22.66
2022-08-26T02:45:23.197Z,22.62
2022-08-26T02:50:19.808Z,22.58
2022-08-26T02:55:22.482Z,22.54
2022-08-26T03:05:27.733Z,22.48
2022-08-26T03:10:30.394Z,22.45
2022-08-26T03:15:33.114Z,22.44
2022-08-26T03:20:35.985Z,22.43
2022-08-26T03:25:38.614Z,22.42
2022-08-26T03:30:44.650Z,22.41
2022-08-26T03:35:43.977Z,22.4
2022-08-26T03:40:46.593Z,22.41
2022-08-26T03:45:49.306Z,22.34
2022-08-26T03:50:51.971Z,22.39
2022-08-26T03:55:54.661Z,22.36
2022-08-26T04:06:00.504Z,22.4
2022-08-26T04:11:02.947Z,22.4
2022-08-26T04:16:05.706Z,22.4
2022-08-26T04:21:08.276Z,22.44
2022-08-26T04:26:10.869Z,22.5
2022-08-26T04:31:13.547Z,22.51
2022-08-26T04:36:16.171Z,22.53
2022-08-26T04:41:18.964Z,22.58
2022-08-26T04:46:21.726Z,22.65
2022-08-26T04:51:24.387Z,22.75
2022-08-26T04:56:26.867Z,22.83
2022-08-26T05:01:29.537Z,22.79
2022-08-26T05:06:35.553Z,22.89
2022-08-26T05:11:35.134Z,23.09
2022-08-26T05:16:38.947Z,23.4
2022-08-26T05:21:40.787Z,23.57
2022-08-26T05:26:44.518Z,23.71
2022-08-26T05:31:46.063Z,23.73
2022-08-26T05:36:48.668Z,23.67
2022-08-26T05:41:51.392Z,23.7
2022-08-26T05:46:54.070Z,23.82
2022-08-26T05:51:56.667Z,24
2022-08-26T05:56:59.354Z,24.47
2022-08-26T06:02:02.133Z,24.96
2022-08-26T06:07:05.380Z,25.17
2022-08-26T06:12:07.581Z,25.34
2022-08-26T06:17:13.021Z,25.7
2022-08-26T06:22:52.630Z,26.04
2022-08-26T06:27:55.689Z,25.99
2022-08-26T06:32:58.381Z,25.51
2022-08-26T06:38:01.243Z,26.12
2022-08-26T06:43:03.937Z,26.77
2022-08-26T06:48:09.673Z,26.82
2022-08-26T06:53:12.089Z,26.57
2022-08-26T06:58:15.058Z,26.59
2022-08-26T07:03:17.776Z,26.7
2022-08-26T07:08:20.203Z,27.45
2022-08-26T07:13:29.978Z,27.14
2022-08-26T07:18:31.449Z,27.65
2022-08-26T07:23:34.085Z,27.28
2022-08-26T07:28:36.607Z,26.95
2022-08-26T07:33:39.425Z,27.15
2022-08-26T07:38:41.992Z,27.55
2022-08-26T07:43:44.882Z,28.62
2022-08-26T07:48:47.756Z,29.16
2022-08-26T07:53:52.276Z,29.51
2022-08-26T07:58:53.282Z,29.31
2022-08-26T08:08:58.587Z,28.43
2022-08-26T08:19:04.419Z,29.08
2022-08-26T08:29:09.866Z,28.79
2022-08-26T08:34:12.706Z,29.13
2022-08-26T08:39:15.166Z,29.28
2022-08-26T08:44:18.220Z,30.34
2022-08-26T08:59:26.091Z,28.59
2022-08-26T09:04:28.824Z,28.53
2022-08-26T09:09:31.494Z,29.07
2022-08-26T09:14:34.633Z,29.81
2022-08-26T09:19:37.551Z,30.02
2022-08-26T09:24:41.972Z,30.33
2022-08-26T09:29:43.101Z,30.28
2022-08-26T09:34:45.841Z,30.81
2022-08-26T09:39:48.568Z,30.07
2022-08-26T09:44:51.269Z,30.68
2022-08-26T09:49:54.021Z,31.27
2022-08-26T10:05:09.385Z,32.63
2022-08-26T10:10:05.231Z,31.29
2022-08-26T10:20:22.531Z,31.05
2022-08-26T10:25:13.461Z,31.22
2022-08-26T10:35:19.333Z,31.54
2022-08-26T10:45:24.720Z,31.48
2022-08-26T10:50:27.445Z,31.44
2022-08-26T10:55:30.161Z,31.43
2022-08-26T11:00:33.152Z,32.4
2022-08-26T11:05:35.923Z,32.63
2022-08-26T11:15:44.570Z,32.12
2022-08-26T11:25:49.806Z,31.89
2022-08-26T11:30:57.925Z,32.86
2022-08-26T11:35:58.125Z,33.05
2022-08-26T11:41:00.472Z,30.71
2022-08-26T11:46:02.400Z,28.29
2022-08-26T11:56:08.429Z,27.72
2022-08-26T12:01:11.476Z,26.88
2022-08-26T12:06:14.126Z,26.15
2022-08-26T12:16:18.425Z,25.43
2022-08-26T12:21:24.366Z,25.56
2022-08-26T12:26:26.181Z,25.07
2022-08-26T12:36:31.024Z,25.03
2022-08-26T12:41:33.399Z,24.59
2022-08-26T12:46:36.114Z,24.56
2022-08-26T12:56:41.459Z,24.32
2022-08-26T13:01:44.289Z,23.92
2022-08-26T13:06:46.724Z,23.4
2022-08-26T13:16:51.909Z,22.71
2022-08-26T13:21:54.336Z,22.54
2022-08-26T13:26:56.818Z,22.51
2022-08-26T13:31:59.383Z,22.44
2022-08-26T13:37:02.005Z,22.24
2022-08-26T13:42:04.779Z,22.15
2022-08-26T13:47:07.529Z,22.16
2022-08-26T13:52:10.177Z,22
2022-08-26T13:57:12.863Z,22.08
2022-08-26T14:02:16.211Z,22.14
2022-08-26T14:07:18.392Z,21.96
2022-08-26T14:12:21.090Z,21.97
2022-08-26T14:17:23.772Z,22.12
2022-08-26T14:22:26.321Z,21.98
2022-08-26T14:27:28.760Z,21.78
2022-08-26T14:32:31.344Z,21.53
2022-08-26T14:37:33.964Z,21.27
2022-08-26T14:42:36.569Z,21.09
2022-08-26T14:47:39.056Z,21.14
2022-08-26T14:58:39.822Z,20.82
2022-08-26T15:03:42.583Z,20.91
2022-08-26T15:08:45.231Z,20.98
2022-08-26T15:13:47.901Z,21.08
2022-08-26T15:18:50.513Z,21.1
2022-08-26T15:23:53.317Z,21.14
2022-08-26T15:28:56.093Z,21.21
2022-08-26T15:33:58.765Z,21.16
2022-08-26T15:39:01.487Z,21.27
2022-08-26T15:44:03.936Z,21.26
2022-08-26T15:49:06.393Z,21.24
2022-08-26T15:54:10.315Z,21.28
2022-08-26T15:59:11.876Z,21.23
2022-08-26T16:04:14.226Z,21.13
2022-08-26T16:09:16.759Z,21.04
2022-08-26T16:14:19.265Z,21.05
2022-08-26T16:19:21.987Z,21
2022-08-26T16:24:28.543Z,21.08
2022-08-26T16:29:27.176Z,21.09
2022-08-26T16:34:29.854Z,21.09
2022-08-26T16:39:32.569Z,21.07
2022-08-26T16:44:35.279Z,21.13
2022-08-26T16:49:38.169Z,21.25
2022-08-26T16:54:40.759Z,21.3
2022-08-26T16:59:43.448Z,21.19
2022-08-26T17:04:47.189Z,21.21
2022-08-26T17:09:48.935Z,21.32
2022-08-26T17:14:51.450Z,21.21
2022-08-26T17:19:54.143Z,21.2
2022-08-26T17:24:56.731Z,21.36
2022-08-26T17:29:59.553Z,21.35
2022-08-26T17:35:02.316Z,21.47
2022-08-26T17:40:05.024Z,21.45
2022-08-26T17:45:07.668Z,21.52
2022-08-26T17:50:10.337Z,21.48
2022-08-26T17:55:13.192Z,21.43
2022-08-26T18:00:16.030Z,21.47
2022-08-26T18:05:18.821Z,21.41
2022-08-26T18:10:21.506Z,21.42
2022-08-26T18:15:24.242Z,21.36
2022-08-26T18:20:27.042Z,21.23
2022-08-26T18:25:29.944Z,21.27
2022-08-26T18:30:32.791Z,21.3
2022-08-26T18:35:35.313Z,21.22
2022-08-26T18:40:38.054Z,21.26
2022-08-26T18:45:40.825Z,21.29
2022-08-26T18:50:47.062Z,21.27
2022-08-26T18:55:46.395Z,21.16
2022-08-26T19:00:48.825Z,21.14
2022-08-26T19:05:51.533Z,21.12
2022-08-26T19:10:54.140Z,21.07
2022-08-26T19:15:56.693Z,20.99
2022-08-26T19:20:59.401Z,20.95
2022-08-26T19:26:02.067Z,21
2022-08-26T19:31:04.862Z,21.07
2022-08-26T19:36:09.528Z,21.15
2022-08-26T19:41:10.100Z,21.17
2022-08-26T19:46:12.810Z,21.19
2022-08-26T19:51:15.366Z,21.18
2022-08-26T19:56:18.314Z,21.22
2022-08-26T20:01:20.918Z,21.23
2022-08-26T20:11:26.604Z,21.04
2022-08-26T20:16:29.289Z,21.06
2022-08-26T20:21:31.881Z,21.05
2022-08-26T20:26:34.796Z,20.99
2022-08-26T20:31:37.202Z,20.87
2022-08-26T20:36:39.910Z,20.86
2022-08-26T20:41:42.696Z,20.93
2022-08-26T20:46:45.613Z,20.98
2022-08-26T20:51:48.296Z,20.96
2022-08-26T20:56:51.096Z,21.05
2022-08-26T21:01:53.659Z,21.15
2022-08-26T21:06:56.367Z,21.15
2022-08-26T21:11:59.076Z,21.08
2022-08-26T21:17:01.438Z,20.95
2022-08-26T21:22:04.059Z,20.87
2022-08-26T21:27:06.408Z,20.83
2022-08-26T21:32:09.085Z,20.84
2022-08-26T21:42:14.506Z,20.92
2022-08-26T21:47:17.264Z,20.88
2022-08-26T21:52:19.948Z,20.93
2022-08-26T21:57:25.301Z,21
2022-08-26T22:02:28.184Z,20.99
2022-08-26T22:07:30.626Z,21.03
2022-08-26T22:12:33.409Z,21.08
2022-08-26T22:17:36.127Z,21.22
2022-08-26T22:22:38.804Z,21.14
2022-08-26T22:32:44.054Z,20.97
2022-08-26T22:37:46.656Z,21.04
2022-08-26T22:42:55.398Z,20.95
2022-08-26T22:47:51.957Z,20.93
2022-08-26T22:52:54.745Z,21
2022-08-26T22:57:57.235Z,20.84
2022-08-26T23:03:00.044Z,20.68
2022-08-26T23:08:02.652Z,20.67
2022-08-26T23:13:05.181Z,20.7
2022-08-26T23:18:08.028Z,20.72
2022-08-26T23:23:10.669Z,20.65
2022-08-26T23:28:13.334Z,20.66
2022-08-26T23:33:16.152Z,20.63
2022-08-26T23:38:18.752Z,20.71
2022-08-26T23:43:21.514Z,20.61
2022-08-26T23:48:24.406Z,20.64
2022-08-26T23:53:26.956Z,20.71
